sensor_id;sensor_type;location;lat;lon;timestamp;pressure;altitude;pressure_sealevel;temperature;humidity
62072;BME280;48031;48.542;13.232;2022-12-07T00:03:27;97234.38;;;8.30;nan
62072;BME280;48031;48.542;13.232;2022-12-07T00:07:29;97227.00;;;9.04;nan
62072;BME280;48031;48.542;13.232;2022-12-07T00:11:32;97228.53;;;8.66;nan
62072;BME280;48031;48.542;13.232;2022-12-07T00:15:34;97227.25;;;8.69;nan
62072;BME280;48031;48.542;13.232;2022-12-07T00:19:37;97224.69;;;8.79;nan
62072;BME280;48031;48.542;13.232;2022-12-07T00:23:40;97211.34;;;8.89;nan
62072;BME280;48031;48.542;13.232;2022-12-07T00:27:42;97217.06;;;8.93;nan
62072;BME280;48031;48.542;13.232;2022-12-07T00:31:45;97206.41;;;9.58;nan
62072;BME280;48031;48.542;13.232;2022-12-07T00:35:55;97212.00;;;9.13;nan
62072;BME280;48031;48.542;13.232;2022-12-07T00:39:56;97200.00;;;8.59;nan
62072;BME280;48031;48.542;13.232;2022-12-07T00:43:58;97196.81;;;8.95;nan
62072;BME280;48031;48.542;13.232;2022-12-07T00:48:00;97200.97;;;8.69;nan
62072;BME280;48031;48.542;13.232;2022-12-07T00:52:02;97200.00;;;8.59;nan
62072;BME280;48031;48.542;13.232;2022-12-07T00:56:19;97202.53;;;9.15;nan
62072;BME280;48031;48.542;13.232;2022-12-07T01:00:21;97203.81;;;8.74;nan
62072;BME280;48031;48.542;13.232;2022-12-07T01:04:23;97201.50;;;9.00;nan
62072;BME280;48031;48.542;13.232;2022-12-07T01:08:26;97215.59;;;8.85;nan
62072;BME280;48031;48.542;13.232;2022-12-07T01:12:28;97218.47;;;8.79;nan
62072;BME280;48031;48.542;13.232;2022-12-07T01:16:31;97220.19;;;9.18;nan
62072;BME280;48031;48.542;13.232;2022-12-07T01:20:33;97214.09;;;8.61;nan
62072;BME280;48031;48.542;13.232;2022-12-07T01:24:35;97224.63;;;8.91;nan
62072;BME280;48031;48.542;13.232;2022-12-07T01:28:37;97221.63;;;8.59;nan
62072;BME280;48031;48.542;13.232;2022-12-07T01:32:39;97219.84;;;8.98;nan
62072;BME280;48031;48.542;13.232;2022-12-07T01:36:41;97208.13;;;8.75;nan
62072;BME280;48031;48.542;13.232;2022-12-07T01:40:43;97211.72;;;8.81;nan
62072;BME280;48031;48.542;13.232;2022-12-07T01:45:25;97203.84;;;10.12;nan
62072;BME280;48031;48.542;13.232;2022-12-07T01:53:41;97196.09;;;9.38;nan
62072;BME280;48031;48.542;13.232;2022-12-07T01:57:50;97206.34;;;9.36;nan
62072;BME280;48031;48.542;13.232;2022-12-07T02:01:54;97207.09;;;9.32;nan
62072;BME280;48031;48.542;13.232;2022-12-07T02:05:58;97212.25;;;8.95;nan
62072;BME280;48031;48.542;13.232;2022-12-07T02:10:20;97202.59;;;9.37;nan
62072;BME280;48031;48.542;13.232;2022-12-07T02:14:23;97207.09;;;9.32;nan
62072;BME280;48031;48.542;13.232;2022-12-07T02:18:41;97211.47;;;9.16;nan
62072;BME280;48031;48.542;13.232;2022-12-07T02:31:27;97203.06;;;8.79;nan
62072;BME280;48031;48.542;13.232;2022-12-07T02:35:39;97202.97;;;9.07;nan
62072;BME280;48031;48.542;13.232;2022-12-07T02:39:54;97191.88;;;8.92;nan
62072;BME280;48031;48.542;13.232;2022-12-07T02:44:02;97199.25;;;8.47;nan
62072;BME280;48031;48.542;13.232;2022-12-07T02:48:07;97190.66;;;9.00;nan
62072;BME280;48031;48.542;13.232;2022-12-07T02:52:10;97201.75;;;8.37;nan
62072;BME280;48031;48.542;13.232;2022-12-07T02:56:44;97188.69;;;8.95;nan
62072;BME280;48031;48.542;13.232;2022-12-07T03:00:57;97190.97;;;9.03;nan
62072;BME280;48031;48.542;13.232;2022-12-07T03:09:20;61634.44;;;-142.07;100.00
62072;BME280;48031;48.542;13.232;2022-12-07T03:18:07;61634.44;;;-142.07;100.00
62072;BME280;48031;48.542;13.232;2022-12-07T03:22:13;61634.44;;;-142.07;100.00
62072;BME280;48031;48.542;13.232;2022-12-07T03:26:17;61634.44;;;-142.07;100.00
62072;BME280;48031;48.542;13.232;2022-12-07T03:30:29;61634.44;;;-142.07;100.00
62072;BME280;48031;48.542;13.232;2022-12-07T03:34:38;61634.44;;;-142.07;100.00
62072;BME280;48031;48.542;13.232;2022-12-07T03:43:04;61634.44;;;-142.07;100.00
62072;BME280;48031;48.542;13.232;2022-12-07T03:47:31;61634.44;;;-142.07;100.00
62072;BME280;48031;48.542;13.232;2022-12-07T03:51:48;61634.44;;;-142.07;100.00
62072;BME280;48031;48.542;13.232;2022-12-07T03:55:59;61634.44;;;-142.07;100.00
62072;BME280;48031;48.542;13.232;2022-12-07T04:00:07;61634.44;;;-142.07;100.00
62072;BME280;48031;48.542;13.232;2022-12-07T04:04:15;61634.44;;;-142.07;100.00
62072;BME280;48031;48.542;13.232;2022-12-07T04:08:17;61634.44;;;-142.07;100.00
62072;BME280;48031;48.542;13.232;2022-12-07T04:12:19;61634.44;;;-142.07;100.00
62072;BME280;48031;48.542;13.232;2022-12-07T04:16:21;61634.44;;;-142.07;100.00
62072;BME280;48031;48.542;13.232;2022-12-07T04:20:23;61634.44;;;-142.07;100.00
62072;BME280;48031;48.542;13.232;2022-12-07T04:24:24;61634.44;;;-142.07;100.00
62072;BME280;48031;48.542;13.232;2022-12-07T04:28:26;61634.44;;;-142.07;100.00
62072;BME280;48031;48.542;13.232;2022-12-07T04:32:28;61634.44;;;-142.07;100.00
62072;BME280;48031;48.542;13.232;2022-12-07T04:36:30;61634.44;;;-142.07;100.00
62072;BME280;48031;48.542;13.232;2022-12-07T04:40:32;61634.44;;;-142.07;100.00
62072;BME280;48031;48.542;13.232;2022-12-07T04:44:34;61634.44;;;-142.07;100.00
62072;BME280;48031;48.542;13.232;2022-12-07T04:48:36;61634.44;;;-142.07;100.00
62072;BME280;48031;48.542;13.232;2022-12-07T04:52:38;61634.44;;;-142.07;100.00
62072;BME280;48031;48.542;13.232;2022-12-07T04:56:40;61634.44;;;-142.07;100.00
62072;BME280;48031;48.542;13.232;2022-12-07T05:00:42;61634.44;;;-142.07;100.00
62072;BME280;48031;48.542;13.232;2022-12-07T05:04:44;61634.44;;;-142.07;100.00
62072;BME280;48031;48.542;13.232;2022-12-07T05:08:46;61634.44;;;-142.07;100.00
62072;BME280;48031;48.542;13.232;2022-12-07T05:12:48;61634.44;;;-142.07;100.00
62072;BME280;48031;48.542;13.232;2022-12-07T05:16:50;61634.44;;;-142.07;100.00
62072;BME280;48031;48.542;13.232;2022-12-07T05:20:53;61634.44;;;-142.07;100.00
62072;BME280;48031;48.542;13.232;2022-12-07T05:24:55;61634.44;;;-142.07;100.00
62072;BME280;48031;48.542;13.232;2022-12-07T05:28:57;61634.44;;;-142.07;100.00
62072;BME280;48031;48.542;13.232;2022-12-07T05:32:59;61634.44;;;-142.07;100.00
62072;BME280;48031;48.542;13.232;2022-12-07T05:37:01;61634.44;;;-142.07;100.00
62072;BME280;48031;48.542;13.232;2022-12-07T05:41:04;61634.44;;;-142.07;100.00
62072;BME280;48031;48.542;13.232;2022-12-07T05:45:08;61634.44;;;-142.07;100.00
62072;BME280;48031;48.542;13.232;2022-12-07T05:49:10;61634.44;;;-142.07;100.00
62072;BME280;48031;48.542;13.232;2022-12-07T05:53:12;61634.44;;;-142.07;100.00
62072;BME280;48031;48.542;13.232;2022-12-07T05:57:16;61634.44;;;-142.07;100.00
62072;BME280;48031;48.542;13.232;2022-12-07T06:01:18;61634.44;;;-142.07;100.00
62072;BME280;48031;48.542;13.232;2022-12-07T06:05:20;61634.44;;;-142.07;100.00
62072;BME280;48031;48.542;13.232;2022-12-07T06:09:22;61634.44;;;-142.07;100.00
62072;BME280;48031;48.542;13.232;2022-12-07T06:13:25;61634.44;;;-142.07;100.00
62072;BME280;48031;48.542;13.232;2022-12-07T06:17:26;61634.44;;;-142.07;100.00
62072;BME280;48031;48.542;13.232;2022-12-07T06:21:28;61634.69;;;-142.07;100.00
62072;BME280;48031;48.542;13.232;2022-12-07T06:25:30;61634.44;;;-142.07;100.00
62072;BME280;48031;48.542;13.232;2022-12-07T06:29:32;61634.44;;;-142.07;100.00
62072;BME280;48031;48.542;13.232;2022-12-07T06:33:35;61634.44;;;-142.07;100.00
62072;BME280;48031;48.542;13.232;2022-12-07T06:37:37;61634.44;;;-142.07;100.00
62072;BME280;48031;48.542;13.232;2022-12-07T06:41:39;61634.44;;;-142.07;100.00
62072;BME280;48031;48.542;13.232;2022-12-07T06:45:43;61634.44;;;-142.07;100.00
62072;BME280;48031;48.542;13.232;2022-12-07T06:49:45;61634.44;;;-142.07;100.00
62072;BME280;48031;48.542;13.232;2022-12-07T06:53:47;61634.44;;;-142.07;100.00
62072;BME280;48031;48.542;13.232;2022-12-07T06:57:49;61634.44;;;-142.07;100.00
62072;BME280;48031;48.542;13.232;2022-12-07T07:01:51;61634.44;;;-142.07;100.00
62072;BME280;48031;48.542;13.232;2022-12-07T07:05:52;97195.75;;;6.38;nan
62072;BME280;48031;48.542;13.232;2022-12-07T07:09:54;61634.44;;;-142.07;100.00
62072;BME280;48031;48.542;13.232;2022-12-07T07:13:56;61634.44;;;-142.07;100.00
62072;BME280;48031;48.542;13.232;2022-12-07T07:18:00;61634.44;;;-142.07;100.00
62072;BME280;48031;48.542;13.232;2022-12-07T07:22:08;61634.44;;;-142.07;100.00
62072;BME280;48031;48.542;13.232;2022-12-07T07:26:10;97208.84;;;6.23;nan
62072;BME280;48031;48.542;13.232;2022-12-07T07:30:12;97197.00;;;6.24;nan
62072;BME280;48031;48.542;13.232;2022-12-07T07:34:14;97217.59;;;6.18;nan
62072;BME280;48031;48.542;13.232;2022-12-07T07:38:15;97218.91;;;6.57;nan
62072;BME280;48031;48.542;13.232;2022-12-07T07:42:17;97234.06;;;6.82;nan
62072;BME280;48031;48.542;13.232;2022-12-07T07:46:20;97216.84;;;7.06;nan
62072;BME280;48031;48.542;13.232;2022-12-07T07:50:22;97218.25;;;7.20;nan
62072;BME280;48031;48.542;13.232;2022-12-07T07:54:24;97221.88;;;7.49;nan
62072;BME280;48031;48.542;13.232;2022-12-07T07:58:25;97231.38;;;7.05;nan
62072;BME280;48031;48.542;13.232;2022-12-07T08:02:28;97237.53;;;7.75;nan
62072;BME280;48031;48.542;13.232;2022-12-07T08:06:31;97241.25;;;7.23;nan
62072;BME280;48031;48.542;13.232;2022-12-07T08:10:33;97243.22;;;7.74;nan
62072;BME280;48031;48.542;13.232;2022-12-07T08:14:36;97250.00;;;8.16;nan
62072;BME280;48031;48.542;13.232;2022-12-07T08:18:39;97249.53;;;8.19;nan
62072;BME280;48031;48.542;13.232;2022-12-07T08:22:41;97244.56;;;7.88;nan
62072;BME280;48031;48.542;13.232;2022-12-07T08:26:43;97248.97;;;7.66;nan
62072;BME280;48031;48.542;13.232;2022-12-07T08:30:45;97254.47;;;8.22;nan
62072;BME280;48031;48.542;13.232;2022-12-07T08:34:47;97254.97;;;8.48;nan
62072;BME280;48031;48.542;13.232;2022-12-07T08:38:49;97267.97;;;8.34;nan
62072;BME280;48031;48.542;13.232;2022-12-07T08:43:11;97274.09;;;7.31;nan
62072;BME280;48031;48.542;13.232;2022-12-07T08:47:13;97269.53;;;7.55;nan
62072;BME280;48031;48.542;13.232;2022-12-07T08:51:15;97269.41;;;7.73;nan
62072;BME280;48031;48.542;13.232;2022-12-07T08:55:17;97283.84;;;7.79;nan
62072;BME280;48031;48.542;13.232;2022-12-07T08:59:20;97276.91;;;8.34;nan
62072;BME280;48031;48.542;13.232;2022-12-07T09:03:22;97273.78;;;8.71;nan
62072;BME280;48031;48.542;13.232;2022-12-07T09:07:25;97271.50;;;8.34;nan
62072;BME280;48031;48.542;13.232;2022-12-07T09:11:27;97267.16;;;8.22;nan
62072;BME280;48031;48.542;13.232;2022-12-07T09:15:29;97268.22;;;8.61;nan
62072;BME280;48031;48.542;13.232;2022-12-07T09:19:32;97270.22;;;8.14;nan
62072;BME280;48031;48.542;13.232;2022-12-07T09:23:34;97267.69;;;8.07;nan
62072;BME280;48031;48.542;13.232;2022-12-07T09:27:37;97267.34;;;7.92;nan
62072;BME280;48031;48.542;13.232;2022-12-07T09:31:38;97274.72;;;8.48;nan
62072;BME280;48031;48.542;13.232;2022-12-07T09:35:45;97259.88;;;9.46;nan
62072;BME280;48031;48.542;13.232;2022-12-07T09:39:47;97263.09;;;9.81;nan
62072;BME280;48031;48.542;13.232;2022-12-07T09:43:52;97248.53;;;9.87;nan
62072;BME280;48031;48.542;13.232;2022-12-07T09:47:54;97247.28;;;9.95;nan
62072;BME280;48031;48.542;13.232;2022-12-07T09:52:27;97244.19;;;10.78;nan
62072;BME280;48031;48.542;13.232;2022-12-07T09:56:32;97235.22;;;10.24;nan
62072;BME280;48031;48.542;13.232;2022-12-07T10:00:34;97240.22;;;9.94;nan
62072;BME280;48031;48.542;13.232;2022-12-07T10:04:37;97235.03;;;10.14;nan
62072;BME280;48031;48.542;13.232;2022-12-07T10:08:39;97232.66;;;10.66;nan
62072;BME280;48031;48.542;13.232;2022-12-07T10:13:04;97224.25;;;10.68;nan
62072;BME280;48031;48.542;13.232;2022-12-07T10:17:29;97229.19;;;11.77;nan
62072;BME280;48031;48.542;13.232;2022-12-07T10:21:32;97217.59;;;10.80;nan
62072;BME280;48031;48.542;13.232;2022-12-07T10:25:36;97205.06;;;11.48;nan
62072;BME280;48031;48.542;13.232;2022-12-07T10:29:39;97200.56;;;11.27;nan
62072;BME280;48031;48.542;13.232;2022-12-07T10:37:54;97185.63;;;11.24;nan
62072;BME280;48031;48.542;13.232;2022-12-07T10:41:57;97197.13;;;10.41;nan
62072;BME280;48031;48.542;13.232;2022-12-07T10:46:18;97185.06;;;11.64;nan
62072;BME280;48031;48.542;13.232;2022-12-07T10:59:40;97199.91;;;11.10;nan
62072;BME280;48031;48.542;13.232;2022-12-07T11:04:16;97200.47;;;11.54;nan
62072;BME280;48031;48.542;13.232;2022-12-07T11:16:59;97187.56;;;11.76;nan
62072;BME280;48031;48.542;13.232;2022-12-07T11:33:51;97170.44;;;11.29;nan
62072;BME280;48031;48.542;13.232;2022-12-07T11:37:59;97172.81;;;10.51;nan
62072;BME280;48031;48.542;13.232;2022-12-07T11:42:09;97166.19;;;11.06;nan
62072;BME280;48031;48.542;13.232;2022-12-07T11:46:14;97156.44;;;10.41;nan
62072;BME280;48031;48.542;13.232;2022-12-07T11:54:40;97153.56;;;10.84;nan
62072;BME280;48031;48.542;13.232;2022-12-07T12:02:58;97143.63;;;11.00;nan
62072;BME280;48031;48.542;13.232;2022-12-07T12:07:02;97146.31;;;10.63;nan
62072;BME280;48031;48.542;13.232;2022-12-07T12:11:56;97142.75;;;10.95;nan
62072;BME280;48031;48.542;13.232;2022-12-07T12:24:40;97136.63;;;9.70;nan
62072;BME280;48031;48.542;13.232;2022-12-07T12:28:56;97123.06;;;10.72;nan
62072;BME280;48031;48.542;13.232;2022-12-07T12:33:28;97130.41;;;10.77;nan
62072;BME280;48031;48.542;13.232;2022-12-07T12:45:40;97139.03;;;9.23;nan
62072;BME280;48031;48.542;13.232;2022-12-07T12:49:43;97138.22;;;10.15;nan
62072;BME280;48031;48.542;13.232;2022-12-07T12:54:11;97141.75;;;9.88;nan
62072;BME280;48031;48.542;13.232;2022-12-07T13:02:32;97132.22;;;9.42;nan
62072;BME280;48031;48.542;13.232;2022-12-07T13:06:36;97127.03;;;9.36;nan
62072;BME280;48031;48.542;13.232;2022-12-07T13:10:41;97126.63;;;9.27;nan
62072;BME280;48031;48.542;13.232;2022-12-07T13:14:54;97120.22;;;10.03;nan
62072;BME280;48031;48.542;13.232;2022-12-07T13:18:57;97119.00;;;8.86;nan
62072;BME280;48031;48.542;13.232;2022-12-07T13:22:59;97113.25;;;9.21;nan
62072;BME280;48031;48.542;13.232;2022-12-07T13:27:02;97117.19;;;9.73;nan
62072;BME280;48031;48.542;13.232;2022-12-07T13:31:14;97106.06;;;9.96;nan
62072;BME280;48031;48.542;13.232;2022-12-07T13:35:36;97102.34;;;10.29;nan
62072;BME280;48031;48.542;13.232;2022-12-07T13:39:47;97096.88;;;9.76;nan
62072;BME280;48031;48.542;13.232;2022-12-07T13:47:54;97101.59;;;10.12;nan
62072;BME280;48031;48.542;13.232;2022-12-07T13:52:23;97095.75;;;10.52;nan
62072;BME280;48031;48.542;13.232;2022-12-07T13:56:32;97101.88;;;9.62;nan
62072;BME280;48031;48.542;13.232;2022-12-07T14:00:35;97104.81;;;9.17;nan
62072;BME280;48031;48.542;13.232;2022-12-07T14:04:38;97107.59;;;8.84;nan
62072;BME280;48031;48.542;13.232;2022-12-07T14:08:43;97093.13;;;9.33;nan
62072;BME280;48031;48.542;13.232;2022-12-07T14:12:45;97104.41;;;9.47;nan
62072;BME280;48031;48.542;13.232;2022-12-07T14:17:12;97107.16;;;9.74;nan
62072;BME280;48031;48.542;13.232;2022-12-07T14:21:19;97101.31;;;9.60;nan
62072;BME280;48031;48.542;13.232;2022-12-07T14:25:23;97095.06;;;9.38;nan
62072;BME280;48031;48.542;13.232;2022-12-07T14:33:28;97096.00;;;9.05;nan
62072;BME280;48031;48.542;13.232;2022-12-07T14:37:30;97091.09;;;9.67;nan
62072;BME280;48031;48.542;13.232;2022-12-07T14:41:32;97083.22;;;9.44;nan
62072;BME280;48031;48.542;13.232;2022-12-07T14:45:52;97087.94;;;9.32;nan
62072;BME280;48031;48.542;13.232;2022-12-07T14:49:54;97083.50;;;9.04;nan
62072;BME280;48031;48.542;13.232;2022-12-07T14:53:57;97082.09;;;9.18;nan
62072;BME280;48031;48.542;13.232;2022-12-07T14:57:59;97080.28;;;8.85;nan
62072;BME280;48031;48.542;13.232;2022-12-07T15:02:01;97081.84;;;8.81;nan
62072;BME280;48031;48.542;13.232;2022-12-07T15:06:04;97076.28;;;9.09;nan
62072;BME280;48031;48.542;13.232;2022-12-07T15:10:14;97073.34;;;9.11;nan
62072;BME280;48031;48.542;13.232;2022-12-07T15:14:24;97081.31;;;9.01;nan
62072;BME280;48031;48.542;13.232;2022-12-07T15:18:25;97070.41;;;8.74;nan
62072;BME280;48031;48.542;13.232;2022-12-07T15:22:27;97073.59;;;8.54;nan
62072;BME280;48031;48.542;13.232;2022-12-07T15:26:39;97068.28;;;8.98;nan
62072;BME280;48031;48.542;13.232;2022-12-07T15:30:42;97067.97;;;9.16;nan
62072;BME280;48031;48.542;13.232;2022-12-07T15:34:45;97066.84;;;8.90;nan
62072;BME280;48031;48.542;13.232;2022-12-07T15:38:47;97062.97;;;9.25;nan
62072;BME280;48031;48.542;13.232;2022-12-07T15:43:09;97067.25;;;8.82;nan
62072;BME280;48031;48.542;13.232;2022-12-07T15:51:58;97053.50;;;9.05;nan
62072;BME280;48031;48.542;13.232;2022-12-07T15:56:00;97058.69;;;8.68;nan
62072;BME280;48031;48.542;13.232;2022-12-07T16:00:03;97056.53;;;8.70;nan
62072;BME280;48031;48.542;13.232;2022-12-07T16:04:05;97059.66;;;8.62;nan
62072;BME280;48031;48.542;13.232;2022-12-07T16:08:07;97061.13;;;8.53;nan
62072;BME280;48031;48.542;13.232;2022-12-07T16:12:09;97065.66;;;8.86;nan
62072;BME280;48031;48.542;13.232;2022-12-07T16:16:14;97066.78;;;9.07;nan
62072;BME280;48031;48.542;13.232;2022-12-07T16:20:16;97066.59;;;8.75;nan
62072;BME280;48031;48.542;13.232;2022-12-07T16:24:18;97062.91;;;8.64;nan
62072;BME280;48031;48.542;13.232;2022-12-07T16:28:20;97072.16;;;8.47;nan
62072;BME280;48031;48.542;13.232;2022-12-07T16:32:21;97069.59;;;8.57;nan
62072;BME280;48031;48.542;13.232;2022-12-07T16:36:24;97068.47;;;8.91;nan
62072;BME280;48031;48.542;13.232;2022-12-07T16:40:47;97068.00;;;8.27;nan
62072;BME280;48031;48.542;13.232;2022-12-07T16:44:50;97060.00;;;8.49;nan
62072;BME280;48031;48.542;13.232;2022-12-07T16:48:52;97057.94;;;8.73;nan
62072;BME280;48031;48.542;13.232;2022-12-07T16:52:53;97055.81;;;8.42;nan
62072;BME280;48031;48.542;13.232;2022-12-07T16:56:55;97056.16;;;8.45;nan
62072;BME280;48031;48.542;13.232;2022-12-07T17:00:57;97060.41;;;8.58;nan
62072;BME280;48031;48.542;13.232;2022-12-07T17:04:59;97048.13;;;8.89;nan
62072;BME280;48031;48.542;13.232;2022-12-07T17:09:01;97059.44;;;9.02;nan
62072;BME280;48031;48.542;13.232;2022-12-07T17:13:04;97054.13;;;9.12;nan
62072;BME280;48031;48.542;13.232;2022-12-07T17:17:26;97046.47;;;8.88;nan
62072;BME280;48031;48.542;13.232;2022-12-07T17:21:30;97059.16;;;9.47;nan
62072;BME280;48031;48.542;13.232;2022-12-07T17:25:31;97053.22;;;8.85;nan
62072;BME280;48031;48.542;13.232;2022-12-07T17:29:33;97051.44;;;9.34;nan
62072;BME280;48031;48.542;13.232;2022-12-07T17:33:35;97051.84;;;9.48;nan
62072;BME280;48031;48.542;13.232;2022-12-07T17:37:37;97047.00;;;9.50;nan
62072;BME280;48031;48.542;13.232;2022-12-07T17:41:39;97047.31;;;9.32;nan
62072;BME280;48031;48.542;13.232;2022-12-07T17:46:05;97042.25;;;9.62;nan
62072;BME280;48031;48.542;13.232;2022-12-07T17:50:08;97044.81;;;9.47;nan
62072;BME280;48031;48.542;13.232;2022-12-07T17:54:11;97054.06;;;9.07;nan
62072;BME280;48031;48.542;13.232;2022-12-07T17:58:13;97060.09;;;9.36;nan
62072;BME280;48031;48.542;13.232;2022-12-07T18:02:15;97053.84;;;8.37;nan
62072;BME280;48031;48.542;13.232;2022-12-07T18:06:17;97057.34;;;9.09;nan
62072;BME280;48031;48.542;13.232;2022-12-07T18:10:19;97044.44;;;8.40;nan
62072;BME280;48031;48.542;13.232;2022-12-07T18:14:21;97041.31;;;8.48;nan
62072;BME280;48031;48.542;13.232;2022-12-07T18:18:23;97046.31;;;8.94;nan
62072;BME280;48031;48.542;13.232;2022-12-07T18:22:25;97051.06;;;8.87;nan
62072;BME280;48031;48.542;13.232;2022-12-07T18:26:27;97041.19;;;8.98;nan
62072;BME280;48031;48.542;13.232;2022-12-07T18:30:29;97044.75;;;9.20;nan
62072;BME280;48031;48.542;13.232;2022-12-07T18:34:51;97049.53;;;8.91;nan
62072;BME280;48031;48.542;13.232;2022-12-07T18:38:55;97035.63;;;9.04;nan
62072;BME280;48031;48.542;13.232;2022-12-07T18:42:57;97037.03;;;9.55;nan
62072;BME280;48031;48.542;13.232;2022-12-07T18:46:59;97040.72;;;9.01;nan
62072;BME280;48031;48.542;13.232;2022-12-07T18:51:03;97037.56;;;9.31;nan
62072;BME280;48031;48.542;13.232;2022-12-07T18:55:06;97045.22;;;9.60;nan
62072;BME280;48031;48.542;13.232;2022-12-07T18:59:12;97040.16;;;9.21;nan
62072;BME280;48031;48.542;13.232;2022-12-07T19:03:46;97045.06;;;8.80;nan
62072;BME280;48031;48.542;13.232;2022-12-07T19:07:49;97043.59;;;8.94;nan
62072;BME280;48031;48.542;13.232;2022-12-07T19:11:52;97035.25;;;9.17;nan
62072;BME280;48031;48.542;13.232;2022-12-07T19:15:55;97037.19;;;9.00;nan
62072;BME280;48031;48.542;13.232;2022-12-07T19:19:57;97031.44;;;9.62;nan
62072;BME280;48031;48.542;13.232;2022-12-07T19:24:02;97033.50;;;9.82;nan
62072;BME280;48031;48.542;13.232;2022-12-07T19:28:04;97040.06;;;8.94;nan
62072;BME280;48031;48.542;13.232;2022-12-07T19:32:06;97042.03;;;9.42;nan
62072;BME280;48031;48.542;13.232;2022-12-07T19:36:11;97047.97;;;9.39;nan
62072;BME280;48031;48.542;13.232;2022-12-07T19:40:12;97034.16;;;9.40;nan
62072;BME280;48031;48.542;13.232;2022-12-07T19:44:17;97029.97;;;9.81;nan
62072;BME280;48031;48.542;13.232;2022-12-07T19:48:19;97027.97;;;9.45;nan
62072;BME280;48031;48.542;13.232;2022-12-07T19:52:21;97017.81;;;9.84;nan
62072;BME280;48031;48.542;13.232;2022-12-07T19:56:23;97014.06;;;10.17;nan
62072;BME280;48031;48.542;13.232;2022-12-07T20:00:25;97012.50;;;9.67;nan
62072;BME280;48031;48.542;13.232;2022-12-07T20:04:28;97026.31;;;9.17;nan
62072;BME280;48031;48.542;13.232;2022-12-07T20:08:31;97012.09;;;9.53;nan
62072;BME280;48031;48.542;13.232;2022-12-07T20:12:33;97015.69;;;9.86;nan
62072;BME280;48031;48.542;13.232;2022-12-07T20:16:53;97005.13;;;9.89;nan
62072;BME280;48031;48.542;13.232;2022-12-07T20:20:58;97008.72;;;10.27;nan
62072;BME280;48031;48.542;13.232;2022-12-07T20:25:00;97008.97;;;9.93;nan
62072;BME280;48031;48.542;13.232;2022-12-07T20:29:07;96999.69;;;10.16;nan
62072;BME280;48031;48.542;13.232;2022-12-07T20:33:17;97013.13;;;9.74;nan
62072;BME280;48031;48.542;13.232;2022-12-07T20:37:19;97013.13;;;9.74;nan
62072;BME280;48031;48.542;13.232;2022-12-07T20:41:21;97008.06;;;9.56;nan
62072;BME280;48031;48.542;13.232;2022-12-07T20:45:48;96999.19;;;9.92;nan
62072;BME280;48031;48.542;13.232;2022-12-07T20:49:50;97006.22;;;9.62;nan
62072;BME280;48031;48.542;13.232;2022-12-07T20:53:52;96999.50;;;9.42;nan
62072;BME280;48031;48.542;13.232;2022-12-07T20:57:54;96997.47;;;9.81;nan
62072;BME280;48031;48.542;13.232;2022-12-07T21:01:56;97009.31;;;9.75;nan
62072;BME280;48031;48.542;13.232;2022-12-07T21:06:00;97000.69;;;10.10;nan
62072;BME280;48031;48.542;13.232;2022-12-07T21:10:04;96998.69;;;9.95;nan
62072;BME280;48031;48.542;13.232;2022-12-07T21:14:07;96998.72;;;10.00;nan
62072;BME280;48031;48.542;13.232;2022-12-07T21:18:09;96997.34;;;9.98;nan
62072;BME280;48031;48.542;13.232;2022-12-07T21:22:11;96987.16;;;9.78;nan
62072;BME280;48031;48.542;13.232;2022-12-07T21:26:15;96986.91;;;10.49;nan
62072;BME280;48031;48.542;13.232;2022-12-07T21:30:17;96978.41;;;10.03;nan
62072;BME280;48031;48.542;13.232;2022-12-07T21:34:19;96969.00;;;9.79;nan
62072;BME280;48031;48.542;13.232;2022-12-07T21:38:21;96981.31;;;9.91;nan
62072;BME280;48031;48.542;13.232;2022-12-07T21:42:23;96982.44;;;9.69;nan
62072;BME280;48031;48.542;13.232;2022-12-07T21:46:26;96977.56;;;9.71;nan
62072;BME280;48031;48.542;13.232;2022-12-07T21:50:34;96983.38;;;9.52;nan
62072;BME280;48031;48.542;13.232;2022-12-07T21:54:42;96975.06;;;9.37;nan
62072;BME280;48031;48.542;13.232;2022-12-07T21:58:46;96964.75;;;9.61;nan
62072;BME280;48031;48.542;13.232;2022-12-07T22:02:48;96959.88;;;9.58;nan
62072;BME280;48031;48.542;13.232;2022-12-07T22:06:51;96962.31;;;9.33;nan
62072;BME280;48031;48.542;13.232;2022-12-07T22:10:53;96970.47;;;9.38;nan
62072;BME280;48031;48.542;13.232;2022-12-07T22:14:55;96960.38;;;9.28;nan
62072;BME280;48031;48.542;13.232;2022-12-07T22:19:10;96965.78;;;9.28;nan
62072;BME280;48031;48.542;13.232;2022-12-07T22:23:12;96961.22;;;9.07;nan
62072;BME280;48031;48.542;13.232;2022-12-07T22:27:14;96951.72;;;9.31;nan
62072;BME280;48031;48.542;13.232;2022-12-07T22:31:17;96962.81;;;9.30;nan
62072;BME280;48031;48.542;13.232;2022-12-07T22:35:19;96954.06;;;9.49;nan
62072;BME280;48031;48.542;13.232;2022-12-07T22:39:21;96955.34;;;9.15;nan
62072;BME280;48031;48.542;13.232;2022-12-07T22:43:24;96940.31;;;9.02;nan
62072;BME280;48031;48.542;13.232;2022-12-07T22:47:26;96940.75;;;8.72;nan
62072;BME280;48031;48.542;13.232;2022-12-07T22:51:32;96933.19;;;9.45;nan
62072;BME280;48031;48.542;13.232;2022-12-07T22:55:38;96933.63;;;9.64;nan
62072;BME280;48031;48.542;13.232;2022-12-07T22:59:40;96934.81;;;9.46;nan
62072;BME280;48031;48.542;13.232;2022-12-07T23:03:42;96926.69;;;8.97;nan
62072;BME280;48031;48.542;13.232;2022-12-07T23:07:44;96925.09;;;8.74;nan
62072;BME280;48031;48.542;13.232;2022-12-07T23:11:46;96933.22;;;8.19;nan
62072;BME280;48031;48.542;13.232;2022-12-07T23:16:13;96932.28;;;8.86;nan
62072;BME280;48031;48.542;13.232;2022-12-07T23:20:16;96943.06;;;8.64;nan
62072;BME280;48031;48.542;13.232;2022-12-07T23:24:18;96930.69;;;8.29;nan
62072;BME280;48031;48.542;13.232;2022-12-07T23:28:19;96914.34;;;8.80;nan
62072;BME280;48031;48.542;13.232;2022-12-07T23:32:21;96915.53;;;8.67;nan
62072;BME280;48031;48.542;13.232;2022-12-07T23:36:25;96917.91;;;8.25;nan